Terminal Aerodrome Forecast
Issued by NWS

Home | Current Version | Previous Version | Text Only | Print | Product List | Glossary On
Versions: 1 2 3 4 5 6 7 8 9 10 11 12 13 14 15 16 17 18 19 20 21 22 23 24
000
FTUS43 KDLH 221700 RRA
TAFBRD
TAF
KBRD 221740Z 2218/2318 13009KT 3SM BR OVC006
     FM222000 13008KT 3SM -RA BR SCT004 OVC007
     FM230000 11005KT 1SM -DZ BR OVC004
     FM230300 08007KT 1SM -DZ BR OVC004
      TEMPO 2305/2309 1/2SM -DZ FG OVC003
     FM230900 03007KT 2SM BR OVC008
     FM231500 01009G15KT 2SM -SN BR SCT005 OVC011=

USA.gov is the U.S. government's official web portal to all federal, state and local government web resources and services.